Terminal Aerodrome Forecast
Issued by NWS

Home | Current Version | Previous Version | Graphics & Text | Print | Product List | Glossary On
Versions: 1 2 3 4 5 6 7 8 9 10 11 12 13 14
085
FTUS43 KMPX 102340
TAFAXN
TAF
KAXN 102340Z 1100/1124 29005KT P6SM OVC080
     FM110200 23005KT P6SM VCSH OVC070
      TEMPO 1104/1106 2SM -SN OVC040
     FM110600 20008KT P6SM OVC070
     FM111000 26009KT P6SM BKN050
     FM111400 33016G24KT P6SM VCSH SCT008 OVC012
     FM111600 34019G28KT P6SM BKN015=

USA.gov is the U.S. government's official web portal to all federal, state and local government web resources and services.